Time;durP1;ratioP1;P1;durP2;ratioP2;P2;SDS_P1;SDS_P2;PMS_P1;PMS_P2;Temp;Humidity;BMP_temperature;BMP_pressure;BME280_temperature;BME280_humidity;BME280_pressure;Samples;Min_cycle;Max_cycle;Signal;HPM_P1;HPM_P2
2022/12/05 00:02:11;;;;;;;57.58;32.30;;;;;;;6.08;100.00;100608.38;5032093;28;20048;-68
2022/12/05 00:04:36;;;;;;;57.85;33.13;;;;;;;6.17;100.00;100615.03;5033119;28;20026;-69
2022/12/05 00:07:02;;;;;;;54.30;30.88;;;;;;;6.27;100.00;100619.75;5033069;28;20024;-69
2022/12/05 00:09:27;;;;;;;56.47;32.05;;;;;;;6.26;100.00;100623.66;5030766;28;20033;-69
2022/12/05 00:11:53;;;;;;;51.10;30.15;;;;;;;6.37;100.00;100621.69;5032985;28;20021;-68
2022/12/05 00:14:18;;;;;;;53.80;30.42;;;;;;;6.40;100.00;100608.09;5031792;28;20083;-69
2022/12/05 00:16:44;;;;;;;53.58;29.38;;;;;;;6.46;100.00;100611.69;5031876;28;20114;-69
2022/12/05 00:19:12;;;;;;;54.55;29.92;;;;;;;6.56;98.79;100610.84;5015094;28;20061;-69
2022/12/05 00:21:38;;;;;;;53.22;28.73;;;;;;;6.54;99.72;100610.28;5031897;28;20112;-68
2022/12/05 00:24:06;;;;;;;51.65;29.73;;;;;;;6.58;99.06;100617.78;5032745;28;20021;-69
2022/12/05 00:26:32;;;;;;;49.75;27.98;;;;;;;6.53;98.99;100611.41;5013382;28;20017;-69
2022/12/05 00:28:58;;;;;;;43.22;26.95;;;;;;;6.50;99.02;100615.56;5031134;28;20485;-69
2022/12/05 00:31:25;;;;;;;46.63;28.13;;;;;;;6.34;99.54;100620.34;5013757;28;20496;-69
2022/12/05 00:33:52;;;;;;;54.58;30.00;;;;;;;6.23;100.00;100622.25;5032593;28;20481;-69
2022/12/05 00:36:25;;;;;;;51.05;28.13;;;;;;;6.18;100.00;100619.50;5031875;28;20064;-69
2022/12/05 00:38:52;;;;;;;52.60;29.23;;;;;;;6.18;100.00;100623.09;5032400;28;20030;-69
2022/12/05 00:41:23;;;;;;;49.50;28.92;;;;;;;6.17;100.00;100623.38;5032504;28;20017;-69
2022/12/05 00:43:49;;;;;;;59.95;33.40;;;;;;;6.06;100.00;100616.16;5014634;28;20225;-69
2022/12/05 00:46:19;;;;;;;52.90;30.40;;;;;;;6.20;100.00;100617.25;5031208;28;20451;-69
2022/12/05 00:48:46;;;;;;;58.35;30.52;;;;;;;6.27;100.00;100623.34;5032376;28;20862;-69
2022/12/05 00:51:23;;;;;;;52.40;28.25;;;;;;;6.21;100.00;100621.72;5030400;28;20025;-70
2022/12/05 00:53:49;;;;;;;57.65;32.38;;;;;;;6.41;100.00;100625.59;5032338;28;20032;-69
2022/12/05 00:56:18;;;;;;;50.22;28.98;;;;;;;6.49;100.00;100625.03;5010252;28;20014;-69
2022/12/05 00:58:44;;;;;;;52.55;29.27;;;;;;;6.45;99.44;100618.38;5020373;28;20048;-69
2022/12/05 01:01:15;;;;;;;53.63;29.42;;;;;;;6.30;100.00;100617.28;5030233;28;20508;-69
2022/12/05 01:03:41;;;;;;;54.83;30.77;;;;;;;6.35;99.78;100610.03;5031056;28;20500;-69
2022/12/05 01:06:07;;;;;;;53.67;28.35;;;;;;;6.43;99.27;100615.03;5029902;28;20053;-69
2022/12/05 01:08:33;;;;;;;50.67;28.10;;;;;;;6.55;98.60;100612.81;5013638;28;20033;-68
2022/12/05 01:10:59;;;;;;;51.20;29.42;;;;;;;6.66;98.40;100613.59;5031811;28;20148;-68
2022/12/05 01:13:26;;;;;;;52.70;27.90;;;;;;;6.66;97.85;100610.00;5032090;28;20037;-69
2022/12/05 01:15:52;;;;;;;52.63;28.63;;;;;;;6.57;98.25;100613.34;5029170;28;20033;-69
2022/12/05 01:18:19;;;;;;;52.20;28.85;;;;;;;6.62;98.21;100618.06;5028290;28;20025;-69
2022/12/05 01:20:45;;;;;;;49.88;27.48;;;;;;;6.73;97.76;100621.66;5012347;28;20084;-69
2022/12/05 01:23:11;;;;;;;49.92;28.58;;;;;;;6.73;97.55;100610.53;5012179;28;20033;-68
2022/12/05 01:25:40;;;;;;;53.03;28.02;;;;;;;6.82;97.30;100610.81;5030275;28;20021;-68
2022/12/05 01:28:07;;;;;;;46.90;25.70;;;;;;;6.89;96.67;100608.56;5012307;28;20035;-69
2022/12/05 01:30:37;;;;;;;51.50;27.10;;;;;;;6.89;95.95;100600.22;5030043;28;20040;-69
2022/12/05 01:33:02;;;;;;;44.33;25.88;;;;;;;6.94;95.95;100602.16;5012801;28;20112;-69
2022/12/05 01:35:31;;;;;;;47.70;28.15;;;;;;;6.98;95.50;100594.88;5031799;28;20120;-69
2022/12/05 01:37:56;;;;;;;49.17;28.45;;;;;;;7.01;95.89;100594.34;5031863;28;20025;-68
2022/12/05 01:40:22;;;;;;;45.95;25.25;;;;;;;7.04;95.05;100591.00;5031821;28;20032;-69
2022/12/05 01:42:47;;;;;;;52.03;27.77;;;;;;;7.04;95.23;100593.78;5030071;28;20108;-69
2022/12/05 01:45:16;;;;;;;47.65;25.70;;;;;;;7.01;95.30;100599.91;5013865;28;20017;-69
2022/12/05 01:47:43;;;;;;;48.30;27.08;;;;;;;7.05;94.81;100598.22;5030554;28;20050;-70
2022/12/05 01:50:09;;;;;;;58.58;28.25;;;;;;;7.08;94.33;100589.28;5031660;28;20492;-69
2022/12/05 01:52:35;;;;;;;45.78;26.60;;;;;;;6.85;94.78;100588.81;5031645;28;20064;-69
2022/12/05 01:55:12;;;;;;;44.03;25.13;;;;;;;6.97;95.55;100585.72;5031518;28;20113;-69
2022/12/05 01:57:38;;;;;;;53.60;25.85;;;;;;;7.00;95.21;100579.59;5030683;28;20104;-69
2022/12/05 02:00:09;;;;;;;44.67;25.45;;;;;;;7.02;94.29;100579.31;5029310;28;20404;-69
2022/12/05 02:02:35;;;;;;;45.20;27.17;;;;;;;6.87;95.15;100572.66;5030576;28;20476;-69
2022/12/05 02:05:10;;;;;;;47.92;27.25;;;;;;;6.97;95.96;100582.09;5031602;28;20021;-69
2022/12/05 02:07:38;;;;;;;49.13;25.20;;;;;;;7.01;95.12;100581.25;5030439;28;20120;-70
2022/12/05 02:10:05;;;;;;;44.00;26.95;;;;;;;7.03;94.83;100583.75;5012113;28;20094;-69
2022/12/05 02:12:30;;;;;;;44.95;25.95;;;;;;;7.07;94.66;100582.06;5031253;28;20435;-68
2022/12/05 02:14:56;;;;;;;47.90;27.40;;;;;;;7.08;94.74;100569.81;5030111;28;20033;-69
2022/12/05 02:17:29;;;;;;;44.30;25.77;;;;;;;7.07;94.58;100573.72;5030136;28;20037;-68
2022/12/05 02:20:04;;;;;;;42.10;24.95;;;;;;;7.08;94.66;100578.16;5030458;28;20025;-69
2022/12/05 02:22:47;;;;;;;39.17;23.63;;;;;;;7.10;94.46;100575.94;5012598;28;20484;-69
2022/12/05 02:25:24;;;;;;;41.80;23.85;;;;;;;7.06;93.70;100569.28;5031259;28;20404;-68
2022/12/05 02:28:28;;;;;;;47.65;25.77;;;;;;;7.05;94.60;100572.34;5011422;28;20068;-69
2022/12/05 02:30:59;;;;;;;39.58;23.40;;;;;;;7.06;94.46;100571.22;5030249;28;20021;-69
2022/12/05 02:33:41;;;;;;;44.50;23.27;;;;;;;6.92;94.59;100566.25;5013461;28;20037;-69
2022/12/05 02:36:15;;;;;;;45.70;23.52;;;;;;;6.84;96.02;100570.47;5031276;28;20056;-68
2022/12/05 02:39:18;;;;;;;44.08;24.83;;;;;;;6.90;96.12;100567.69;5035253;28;20029;-69
2022/12/05 02:42:04;;;;;;;46.78;25.58;;;;;;;6.89;95.97;100566.84;5032177;28;20041;-68
2022/12/05 02:44:40;;;;;;;43.03;26.50;;;;;;;6.81;95.83;100567.41;5032971;28;20041;-69
2022/12/05 02:47:08;;;;;;;39.88;22.83;;;;;;;6.89;96.37;100566.84;5034872;28;20045;-69
2022/12/05 02:49:36;;;;;;;41.58;23.20;;;;;;;6.95;95.38;100560.16;5034009;28;20516;-69
2022/12/05 02:52:06;;;;;;;44.78;25.70;;;;;;;7.01;95.37;100567.34;5034893;28;20112;-69
2022/12/05 02:54:39;;;;;;;45.45;23.65;;;;;;;6.94;95.65;100558.50;5033436;28;20025;-69
2022/12/05 02:57:07;;;;;;;41.58;23.17;;;;;;;6.98;95.27;100569.84;5017360;28;20029;-68
2022/12/05 02:59:32;;;;;;;45.53;25.33;;;;;;;7.01;95.39;100572.09;5015208;28;20044;-68
2022/12/05 03:01:58;;;;;;;48.53;23.67;;;;;;;7.03;95.32;100578.19;5034773;28;20029;-69
2022/12/05 03:04:25;;;;;;;45.35;23.80;;;;;;;6.91;95.55;100580.47;5032791;28;20133;-69
2022/12/05 03:06:57;;;;;;;46.90;23.05;;;;;;;6.91;95.76;100583.25;5033267;28;20025;-69
2022/12/05 03:09:32;;;;;;;38.75;22.52;;;;;;;6.93;95.43;100581.81;5034659;28;20025;-69
2022/12/05 03:12:18;;;;;;;41.65;21.83;;;;;;;6.96;95.64;100584.06;5015526;28;20030;-69
2022/12/05 03:14:53;;;;;;;40.20;22.05;;;;;;;7.00;95.25;100576.00;5017112;28;20201;-69
2022/12/05 03:17:23;;;;;;;35.60;21.42;;;;;;;7.03;94.84;100572.63;5016540;28;20032;-69
2022/12/05 03:20:03;;;;;;;41.35;23.90;;;;;;;7.06;95.10;100585.97;5033335;28;20474;-69
2022/12/05 03:22:39;;;;;;;41.00;23.13;;;;;;;7.06;94.36;100585.13;5015635;28;20500;-69
2022/12/05 03:25:06;;;;;;;38.55;21.48;;;;;;;7.07;94.01;100582.06;5034404;28;20029;-69
2022/12/05 03:28:09;;;;;;;37.60;21.98;;;;;;;7.08;94.41;100580.13;5031146;28;20035;-69
2022/12/05 03:30:37;;;;;;;40.45;21.73;;;;;;;7.07;94.01;100584.03;5031346;28;20513;-69
2022/12/05 03:33:22;;;;;;;31.95;20.13;;;;;;;7.10;94.08;100581.50;5033986;28;20032;-68
2022/12/05 03:36:05;;;;;;;38.35;22.48;;;;;;;7.14;94.08;100588.16;5034182;28;20060;-69
2022/12/05 03:38:49;;;;;;;37.40;21.83;;;;;;;6.96;94.39;100572.09;5014651;28;20021;-69
2022/12/05 03:41:31;;;;;;;42.58;22.98;;;;;;;6.95;94.85;100576.84;5033458;28;20051;-69
2022/12/05 03:44:06;;;;;;;39.95;22.20;;;;;;;7.01;94.43;100577.66;5033984;28;20512;-69
2022/12/05 03:46:36;;;;;;;39.67;22.08;;;;;;;7.07;94.17;100572.91;5016199;28;20484;-68
2022/12/05 03:49:10;;;;;;;37.78;21.42;;;;;;;7.10;94.01;100570.38;5033688;28;20037;-69
2022/12/05 03:51:49;;;;;;;37.25;21.80;;;;;;;7.09;93.86;100574.25;5033967;28;20021;-69
2022/12/05 03:54:34;;;;;;;34.80;20.33;;;;;;;7.12;94.38;100578.44;5010018;28;20021;-68
2022/12/05 03:57:15;;;;;;;35.17;21.25;;;;;;;6.95;95.14;100573.22;5001937;28;20025;-68
2022/12/05 03:59:49;;;;;;;36.97;21.20;;;;;;;6.99;94.79;100566.81;5033804;28;20026;-69
2022/12/05 04:02:23;;;;;;;34.60;21.42;;;;;;;6.96;95.38;100572.94;5015785;28;20045;-69
2022/12/05 04:04:58;;;;;;;37.28;20.10;;;;;;;6.79;95.66;100580.75;5015915;28;20095;-69
2022/12/05 04:07:26;;;;;;;33.92;20.50;;;;;;;6.65;96.57;100572.19;5014248;28;20033;-68
2022/12/05 04:09:57;;;;;;;37.28;21.92;;;;;;;6.49;98.01;100565.84;5032407;28;20091;-69
2022/12/05 04:12:26;;;;;;;38.85;22.48;;;;;;;6.60;98.34;100567.47;5015592;28;20485;-69
2022/12/05 04:14:59;;;;;;;35.13;20.80;;;;;;;6.78;96.84;100571.59;5032368;28;20489;-69
2022/12/05 04:17:49;;;;;;;32.70;21.05;;;;;;;6.90;96.61;100573.25;5010617;28;20424;-69
2022/12/05 04:23:27;;;;;;;35.03;20.02;;;;;;;7.00;96.18;100576.00;5023576;28;20103;-69
2022/12/05 04:25:58;;;;;;;36.45;21.80;;;;;;;7.02;95.59;100579.31;5015880;28;20124;-68
2022/12/05 04:28:38;;;;;;;32.85;19.08;;;;;;;7.04;95.08;100577.09;5033167;28;20036;-69
2022/12/05 04:31:14;;;;;;;38.80;21.65;;;;;;;7.01;94.96;100572.09;5031853;28;20028;-69
2022/12/05 04:34:04;;;;;;;35.17;21.17;;;;;;;6.99;94.98;100565.97;5032416;28;20025;-69
2022/12/05 04:36:42;;;;;;;37.47;20.38;;;;;;;6.91;95.35;100564.59;5033262;28;20030;-69
2022/12/05 04:39:29;;;;;;;35.78;22.52;;;;;;;6.74;96.88;100557.44;5014339;28;20174;-69
2022/12/05 04:42:02;;;;;;;39.58;24.00;;;;;;;6.50;98.08;100548.84;5015201;28;20040;-68
2022/12/05 04:44:33;;;;;;;44.33;23.80;;;;;;;6.44;98.72;100552.78;5015095;28;20481;-69
2022/12/05 04:47:03;;;;;;;43.65;23.27;;;;;;;6.52;99.28;100560.56;5013772;28;20045;-69
2022/12/05 04:49:31;;;;;;;41.30;23.38;;;;;;;6.56;98.84;100561.66;5012020;28;20179;-69
2022/12/05 04:52:01;;;;;;;41.25;22.58;;;;;;;6.53;99.18;100567.78;5031984;28;20489;-69
2022/12/05 04:54:33;;;;;;;43.40;24.05;;;;;;;6.51;99.00;100567.19;5011680;28;20480;-69
2022/12/05 04:57:09;;;;;;;48.58;24.95;;;;;;;6.42;99.56;100569.72;5003790;28;20180;-69
2022/12/05 04:59:35;;;;;;;45.30;25.98;;;;;;;6.53;99.19;100567.78;5028110;28;20025;-69
2022/12/05 05:02:08;;;;;;;49.38;28.17;;;;;;;6.56;99.03;100561.66;5031069;28;20469;-71
2022/12/05 05:04:44;;;;;;;45.70;26.90;;;;;;;6.63;98.96;100566.91;5016958;28;20022;-69
2022/12/05 05:07:12;;;;;;;50.63;27.73;;;;;;;6.53;99.19;100567.78;5025154;28;20064;-69
2022/12/05 05:09:38;;;;;;;48.17;27.10;;;;;;;6.56;98.91;100558.88;5025520;28;20107;-68
2022/12/05 05:12:04;;;;;;;54.58;28.83;;;;;;;6.64;98.77;100564.97;5032435;28;20104;-69
2022/12/05 05:14:30;;;;;;;47.92;26.90;;;;;;;6.64;98.28;100563.00;5032191;28;20079;-69
2022/12/05 05:16:56;;;;;;;56.13;29.27;;;;;;;6.77;97.90;100567.16;4983958;28;20034;-69
2022/12/05 05:19:21;;;;;;;52.78;29.73;;;;;;;6.77;97.79;100566.31;4988897;28;20056;-70
2022/12/05 05:21:47;;;;;;;52.55;27.90;;;;;;;6.81;97.75;100570.19;5020912;28;20061;-68
2022/12/05 05:24:17;;;;;;;52.88;28.40;;;;;;;6.82;97.41;100569.09;5028265;28;20021;-68
2022/12/05 05:26:44;;;;;;;58.50;28.70;;;;;;;6.89;96.89;100583.53;5026081;28;20040;-68
2022/12/05 05:29:11;;;;;;;50.90;26.85;;;;;;;6.84;96.82;100581.59;5028275;28;20033;-67
2022/12/05 05:31:38;;;;;;;53.25;28.27;;;;;;;6.90;96.45;100587.97;5020672;28;20029;-67
2022/12/05 05:34:04;;;;;;;55.83;29.98;;;;;;;6.92;96.42;100585.72;5023577;28;20021;-69
2022/12/05 05:36:30;;;;;;;56.22;28.58;;;;;;;6.94;96.65;100582.69;5005841;28;20025;-69
2022/12/05 05:38:58;;;;;;;57.10;30.58;;;;;;;6.95;96.22;100585.19;5030192;28;20511;-69
2022/12/05 05:41:27;;;;;;;56.13;31.02;;;;;;;6.99;96.01;100591.00;5031830;28;20444;-69
2022/12/05 05:43:53;;;;;;;55.83;31.88;;;;;;;6.94;96.21;100582.69;5031686;28;20411;-68
2022/12/05 05:46:22;;;;;;;89.00;48.60;;;;;;;6.97;96.13;100593.22;5010587;28;20407;-68
2022/12/05 05:48:48;;;;;;;109.53;53.13;;;;;;;6.96;96.17;100588.78;5027016;28;20045;-69
2022/12/05 05:51:15;;;;;;;94.93;43.42;;;;;;;6.91;96.41;100595.19;5030687;28;20163;-68
2022/12/05 05:53:42;;;;;;;70.93;39.80;;;;;;;6.93;96.24;100587.38;5010936;28;20086;-69
2022/12/05 05:56:10;;;;;;;75.28;40.20;;;;;;;6.80;96.73;100599.13;5012967;28;20075;-68
2022/12/05 05:58:36;;;;;;;69.30;37.35;;;;;;;6.94;96.45;100599.38;5030093;28;20095;-69
2022/12/05 06:01:12;;;;;;;80.90;44.83;;;;;;;6.87;96.34;100600.47;5031042;28;20029;-68
2022/12/05 06:03:39;;;;;;;95.47;50.22;;;;;;;6.71;96.93;100601.66;5031625;28;20532;-69
2022/12/05 06:06:07;;;;;;;91.95;48.72;;;;;;;6.69;97.57;100598.31;5028552;28;20025;-72
2022/12/05 06:08:36;;;;;;;81.50;44.63;;;;;;;6.85;96.92;100604.69;5005951;28;20040;-69
2022/12/05 06:11:10;;;;;;;86.82;44.00;;;;;;;6.81;96.42;100618.31;5022731;28;20029;-69
2022/12/05 06:13:36;;;;;;;81.38;47.90;;;;;;;6.73;97.29;100616.09;5031370;28;20025;-68
2022/12/05 06:16:04;;;;;;;88.50;48.55;;;;;;;6.72;97.49;100615.28;5020464;28;20045;-71
2022/12/05 06:18:30;;;;;;;106.82;52.30;;;;;;;6.64;98.34;100617.81;5017382;28;20141;-69
2022/12/05 06:20:57;;;;;;;89.60;48.25;;;;;;;6.75;97.95;100619.41;5003127;28;20560;-69
2022/12/05 06:23:23;;;;;;;97.40;53.63;;;;;;;6.58;98.43;100619.75;5028476;28;20037;-71
2022/12/05 06:25:50;;;;;;;94.80;50.75;;;;;;;6.60;98.79;100623.91;5009199;28;20036;-69
2022/12/05 06:28:16;;;;;;;82.80;49.25;;;;;;;6.73;98.84;100627.22;5006623;28;20497;-68
2022/12/05 06:30:42;;;;;;;83.60;44.65;;;;;;;6.52;99.65;100620.84;5004501;28;20112;-69
2022/12/05 06:33:07;;;;;;;77.03;41.53;;;;;;;6.71;99.39;100621.09;5001483;28;20021;-69
2022/12/05 06:35:33;;;;;;;81.18;42.83;;;;;;;6.76;98.60;100623.06;5025662;28;20026;-74
2022/12/05 06:37:58;;;;;;;73.85;40.38;;;;;;;6.74;98.64;100626.09;5018445;28;20057;-70
2022/12/05 06:40:24;;;;;;;70.40;37.85;;;;;;;6.82;98.67;100636.66;5021507;28;20476;-70
2022/12/05 06:42:49;;;;;;;63.78;36.78;;;;;;;6.77;98.91;100641.41;5010995;28;20034;-64
2022/12/05 06:45:14;;;;;;;64.65;35.17;;;;;;;6.90;98.57;100648.34;5025406;28;20068;-67
2022/12/05 06:47:40;;;;;;;75.60;39.35;;;;;;;7.00;97.50;100642.75;5018721;28;20057;-66
2022/12/05 06:50:06;;;;;;;82.60;41.70;;;;;;;7.01;97.46;100644.41;4991371;28;20036;-69
2022/12/05 06:52:32;;;;;;;92.18;45.28;;;;;;;7.04;97.25;100643.84;5007570;28;20061;-68
2022/12/05 06:54:58;;;;;;;78.53;40.17;;;;;;;7.05;96.30;100639.94;5007118;28;20061;-67
2022/12/05 06:57:24;;;;;;;72.07;37.17;;;;;;;7.00;96.51;100635.22;4987472;28;20054;-66
2022/12/05 06:59:49;;;;;;;68.25;37.42;;;;;;;7.11;96.50;100638.81;4989040;28;20801;-64
2022/12/05 07:02:15;;;;;;;79.78;36.20;;;;;;;7.21;96.80;100651.03;5008202;28;20056;-67
2022/12/05 07:04:40;;;;;;;76.35;37.35;;;;;;;6.90;97.37;100651.13;4987827;28;20038;-68
2022/12/05 07:07:06;;;;;;;70.85;35.20;;;;;;;6.92;97.39;100658.06;5003851;28;20029;-68
2022/12/05 07:09:50;;;;;;;67.55;35.80;;;;;;;6.99;96.92;100658.59;4989701;28;20042;-70
2022/12/05 07:12:17;;;;;;;66.28;34.13;;;;;;;7.01;96.78;100658.34;4991008;28;20036;-70
2022/12/05 07:14:44;;;;;;;64.80;34.08;;;;;;;7.09;96.41;100663.28;4990450;28;20028;-69
2022/12/05 07:17:09;;;;;;;80.38;37.15;;;;;;;7.07;96.53;100654.41;5006757;28;20041;-69
2022/12/05 07:19:35;;;;;;;74.18;36.75;;;;;;;7.20;96.77;100657.72;4988642;28;20129;-71
2022/12/05 07:22:01;;;;;;;68.70;35.92;;;;;;;7.12;96.36;100668.31;4989315;28;20022;-74
2022/12/05 07:24:26;;;;;;;87.00;41.03;;;;;;;6.96;97.61;100667.53;5008943;28;20076;-78
2022/12/05 07:26:52;;;;;;;76.65;40.17;;;;;;;6.96;97.50;100650.81;4994789;28;20041;-73
2022/12/05 07:29:18;;;;;;;80.80;38.63;;;;;;;6.62;98.18;100658.94;5007580;28;20037;-75
2022/12/05 07:31:43;;;;;;;78.78;42.60;;;;;;;6.71;99.09;100654.47;5005227;28;20030;-77
2022/12/05 07:34:09;;;;;;;79.97;36.72;;;;;;;6.90;97.96;100651.13;4987631;28;20398;-75
2022/12/05 07:36:34;;;;;;;80.18;41.50;;;;;;;6.88;98.01;100668.09;5008664;28;20103;-75
2022/12/05 07:39:00;;;;;;;68.47;34.88;;;;;;;7.09;97.63;100677.22;5003856;28;20072;-72
2022/12/05 07:41:28;;;;;;;67.22;33.50;;;;;;;7.21;97.04;100667.72;5005786;28;20030;-72
2022/12/05 07:43:55;;;;;;;57.88;29.52;;;;;;;7.20;96.50;100666.91;5003532;28;20473;-73
2022/12/05 07:46:22;;;;;;;52.47;27.98;;;;;;;7.29;96.43;100672.72;5002748;28;20034;-73
2022/12/05 07:48:49;;;;;;;56.65;29.23;;;;;;;7.33;96.51;100670.19;5022229;28;20085;-72
2022/12/05 07:51:15;;;;;;;50.45;28.30;;;;;;;7.52;96.00;100673.19;5009982;28;20131;-79
2022/12/05 07:53:43;;;;;;;54.20;26.85;;;;;;;7.52;94.89;100667.63;5006203;28;20033;-78
2022/12/05 07:56:10;;;;;;;43.63;26.08;;;;;;;7.45;94.52;100671.53;5021587;28;20022;-77
2022/12/05 07:58:35;;;;;;;51.38;27.27;;;;;;;7.58;93.89;100672.03;5010972;28;20086;-77
2022/12/05 08:01:30;;;;;;;67.13;34.78;;;;;;;7.57;93.04;100681.50;5026687;28;20083;-76
2022/12/05 08:03:58;;;;;;;54.63;26.15;;;;;;;7.43;93.44;100679.34;5015581;28;20091;-77
2022/12/05 08:06:27;;;;;;;49.92;25.98;;;;;;;7.32;93.88;100669.34;5022228;28;20136;-77
2022/12/05 08:08:53;;;;;;;49.75;25.95;;;;;;;7.59;93.04;100668.97;5027538;28;20427;-77
2022/12/05 08:11:22;;;;;;;57.22;26.02;;;;;;;7.49;93.28;100657.88;5009033;28;20044;-76
2022/12/05 08:13:48;;;;;;;57.53;24.65;;;;;;;7.51;93.69;100664.00;5007169;28;20018;-79
2022/12/05 08:16:17;;;;;;;51.60;25.02;;;;;;;7.43;93.27;100657.06;5010828;28;20025;-76
2022/12/05 08:18:43;;;;;;;50.75;23.98;;;;;;;7.50;94.06;100665.09;5026703;28;20029;-75
2022/12/05 08:21:12;;;;;;;52.70;25.90;;;;;;;7.53;93.35;100672.88;5020552;28;20516;-78
2022/12/05 08:23:39;;;;;;;51.50;25.40;;;;;;;7.54;93.01;100657.03;5006414;28;20045;-82
2022/12/05 08:26:14;;;;;;;57.97;27.52;;;;;;;7.47;93.03;100648.97;4995543;28;20112;-74
2022/12/05 08:28:40;;;;;;;60.75;28.52;;;;;;;7.44;92.20;100655.13;5030676;28;20091;-74
2022/12/05 08:31:11;;;;;;;81.38;37.95;;;;;;;7.63;91.87;100655.31;5022667;28;20109;-73
2022/12/05 08:33:38;;;;;;;143.25;58.35;;;;;;;7.55;92.12;100653.97;5026423;28;20033;-70
2022/12/05 08:36:06;;;;;;;75.30;38.08;;;;;;;7.77;91.93;100646.31;5025653;28;20148;-73
2022/12/05 08:38:31;;;;;;;48.35;27.58;;;;;;;7.76;91.49;100639.09;5027217;28;20044;-72
2022/12/05 08:41:04;;;;;;;62.95;29.88;;;;;;;7.81;91.44;100639.06;5020777;28;20818;-73
2022/12/05 08:43:30;;;;;;;59.28;31.52;;;;;;;7.77;90.82;100637.97;5022976;28;20504;-75
2022/12/05 08:45:56;;;;;;;51.67;27.55;;;;;;;7.84;91.45;100642.09;5012534;28;20037;-75
2022/12/05 08:48:22;;;;;;;64.03;32.75;;;;;;;7.89;90.43;100637.59;4994172;28;20568;-75
2022/12/05 08:50:48;;;;;;;56.42;29.73;;;;;;;7.80;89.65;100623.47;4987816;28;20125;-73
2022/12/05 08:53:13;;;;;;;66.03;31.33;;;;;;;7.80;89.42;100626.25;5021072;28;20029;-73
2022/12/05 08:55:39;;;;;;;62.65;31.27;;;;;;;7.75;89.62;100635.47;4992909;28;20034;-75
2022/12/05 08:58:05;;;;;;;64.32;32.63;;;;;;;7.85;89.90;100623.44;5028668;28;20025;-74
2022/12/05 09:00:31;;;;;;;60.15;30.90;;;;;;;7.72;89.86;100625.75;5025619;28;20025;-70
2022/12/05 09:02:57;;;;;;;59.60;31.40;;;;;;;7.79;89.73;100624.59;5010326;28;20116;-69
2022/12/05 09:05:23;;;;;;;62.33;31.13;;;;;;;7.84;88.78;100613.41;5030181;28;20028;-70
2022/12/05 09:07:49;;;;;;;62.00;32.30;;;;;;;8.03;88.30;100623.88;5007964;28;20492;-70
2022/12/05 09:10:14;;;;;;;58.63;31.02;;;;;;;8.03;87.61;100612.72;5029054;28;20099;-70
2022/12/05 09:12:40;;;;;;;57.85;30.60;;;;;;;8.21;86.76;100609.25;5031700;28;20507;-69
2022/12/05 09:15:07;;;;;;;69.10;33.45;;;;;;;8.18;86.85;100620.16;5010808;28;20080;-70
2022/12/05 09:17:33;;;;;;;57.55;31.27;;;;;;;8.20;85.93;100615.09;5023537;28;20048;-70
2022/12/05 09:19:58;;;;;;;52.15;29.35;;;;;;;8.26;83.91;100605.56;5007757;28;20468;-70
2022/12/05 09:22:24;;;;;;;56.33;30.60;;;;;;;8.28;84.63;100617.28;5031037;28;20033;-70
2022/12/05 09:24:49;;;;;;;52.47;29.33;;;;;;;8.38;83.73;100619.97;5031309;28;20024;-70
2022/12/05 09:27:15;;;;;;;48.90;27.33;;;;;;;8.41;81.63;100611.03;5029648;28;20484;-69
2022/12/05 09:29:41;;;;;;;58.53;31.08;;;;;;;8.45;82.21;100619.66;5029339;28;20032;-70
2022/12/05 09:32:07;;;;;;;53.60;31.23;;;;;;;8.46;84.02;100614.88;5009476;28;20094;-69
2022/12/05 09:34:33;;;;;;;60.42;30.95;;;;;;;8.41;83.87;100608.25;5029854;28;20111;-71
2022/12/05 09:37:00;;;;;;;55.20;29.38;;;;;;;8.35;83.58;100609.41;5030275;28;20033;-69
2022/12/05 09:39:26;;;;;;;63.17;34.28;;;;;;;8.53;82.45;100604.25;5030666;28;20492;-70
2022/12/05 09:42:16;;;;;;;107.78;59.00;;;;;;;8.54;81.93;100603.94;5011237;28;20025;-69
2022/12/05 09:44:54;;;;;;;65.55;31.83;;;;;;;8.46;82.45;100599.00;5028481;28;20025;-71
2022/12/05 09:47:22;;;;;;;59.35;31.05;;;;;;;8.47;83.27;100600.66;5009726;28;20126;-70
2022/12/05 09:49:59;;;;;;;59.30;30.33;;;;;;;8.53;82.34;100593.94;5020983;28;20033;-69
2022/12/05 09:52:32;;;;;;;59.58;30.90;;;;;;;8.38;83.58;100589.28;5029946;28;20017;-70
2022/12/05 09:55:22;;;;;;;58.50;30.40;;;;;;;8.48;83.15;100584.75;5030746;28;20080;-70
2022/12/05 09:57:55;;;;;;;59.38;31.48;;;;;;;8.40;82.86;100583.44;5029886;28;20044;-69
2022/12/05 10:00:21;;;;;;;51.95;27.52;;;;;;;8.35;82.49;100586.28;5029657;28;20033;-70
2022/12/05 10:03:37;;;;;;;54.47;27.42;;;;;;;8.08;82.40;100582.03;5012062;28;20511;-69
2022/12/05 10:06:23;;;;;;;60.65;30.75;;;;;;;8.10;84.29;100574.22;5006485;28;20496;-69
2022/12/05 10:09:09;;;;;;;63.42;32.15;;;;;;;8.14;84.06;100578.94;4996748;28;20021;-71
2022/12/05 10:11:51;;;;;;;72.40;35.25;;;;;;;7.99;85.10;100585.44;5002788;28;20029;-70
2022/12/05 10:15:00;;;;;;;63.42;31.27;;;;;;;8.25;84.83;100582.44;5027709;28;20457;-70
2022/12/05 10:17:37;;;;;;;73.80;35.58;;;;;;;8.13;85.56;100582.00;4982638;28;20037;-70
2022/12/05 10:20:21;;;;;;;53.40;30.10;;;;;;;8.34;84.16;100579.03;5009344;28;20029;-69
2022/12/05 10:22:51;;;;;;;50.60;24.67;;;;;;;8.46;84.19;100575.84;5014882;28;20092;-69
2022/12/05 10:25:22;;;;;;;53.03;23.75;;;;;;;8.24;83.48;100566.84;5011937;28;20017;-70
2022/12/05 10:27:51;;;;;;;48.55;25.98;;;;;;;8.33;83.06;100566.22;5030633;28;20025;-69
2022/12/05 10:30:22;;;;;;;57.57;31.43;;;;;;;8.21;84.61;100555.44;5011871;28;20025;-69
2022/12/05 10:33:13;;;;;;;54.55;29.92;;;;;;;7.97;85.56;100559.00;4994028;28;20436;-69
2022/12/05 10:35:40;;;;;;;51.35;26.05;;;;;;;7.84;86.34;100552.13;5019704;28;20028;-69
2022/12/05 10:38:22;;;;;;;48.30;25.92;;;;;;;7.96;85.68;100552.59;5009982;28;20060;-70
2022/12/05 10:40:51;;;;;;;48.78;25.77;;;;;;;8.07;86.42;100544.13;5015834;28;20026;-69
2022/12/05 10:43:29;;;;;;;68.32;38.53;;;;;;;8.05;85.60;100551.97;5030302;28;20025;-70
2022/12/05 10:45:54;;;;;;;85.95;44.90;;;;;;;8.17;85.07;100546.03;5025793;28;20087;-70
2022/12/05 10:48:21;;;;;;;51.40;27.15;;;;;;;8.41;83.44;100543.28;5022878;28;20096;-70
2022/12/05 10:50:53;;;;;;;49.25;25.35;;;;;;;8.22;84.08;100541.22;5028849;28;20026;-69
2022/12/05 10:53:39;;;;;;;41.80;22.60;;;;;;;8.08;84.54;100532.72;5026968;28;20053;-69
2022/12/05 10:56:38;;;;;;;46.15;24.65;;;;;;;8.06;85.67;100539.69;5023632;28;20404;-70
2022/12/05 10:59:06;;;;;;;47.20;24.05;;;;;;;8.14;85.96;100545.50;5019763;28;20036;-69
2022/12/05 11:01:32;;;;;;;40.53;21.15;;;;;;;8.12;84.52;100536.56;5033453;28;20057;-70
2022/12/05 11:04:00;;;;;;;40.83;23.95;;;;;;;8.21;83.69;100534.00;5015193;28;20021;-70
2022/12/05 11:06:31;;;;;;;41.13;18.83;;;;;;;7.96;84.65;100530.31;5033434;28;20032;-70
2022/12/05 11:09:02;;;;;;;43.33;23.58;;;;;;;8.20;83.71;100523.94;5014854;28;20021;-70
2022/12/05 11:11:32;;;;;;;41.95;23.55;;;;;;;8.35;83.54;100527.75;5033235;28;20578;-70
2022/12/05 11:14:00;;;;;;;40.90;23.33;;;;;;;8.38;83.51;100525.16;5034053;28;20113;-69
2022/12/05 11:16:37;;;;;;;49.53;22.70;;;;;;;8.46;83.36;100525.66;5026159;28;20030;-70
2022/12/05 11:19:36;;;;;;;206.85;64.05;;;;;;;8.48;83.85;100529.81;5024291;28;20086;-70
2022/12/05 11:22:04;;;;;;;427.80;127.63;;;;;;;8.47;83.77;100521.75;5026811;28;20116;-70
2022/12/05 11:24:37;;;;;;;275.30;82.55;;;;;;;8.49;83.44;100519.50;5031759;28;20048;-70
2022/12/05 11:27:14;;;;;;;93.32;35.10;;;;;;;8.52;83.04;100514.19;5033630;28;20020;-70
2022/12/05 11:29:40;;;;;;;87.75;31.85;;;;;;;8.69;82.34;100510.94;5033414;28;20041;-70
2022/12/05 11:32:17;;;;;;;82.70;30.80;;;;;;;8.73;82.33;100507.53;5031712;28;20432;-69
2022/12/05 11:35:12;;;;;;;58.13;25.45;;;;;;;8.78;82.03;100504.72;4998703;28;20065;-70
2022/12/05 11:38:02;;;;;;;74.97;29.98;;;;;;;8.83;81.58;100507.41;5024282;28;20100;-69